createdAt,value
2019-03-20T00:00:05.124Z,1.80
2019-03-20T00:01:06.898Z,1.80
2019-03-20T00:02:04.514Z,1.80
2019-03-20T00:03:04.775Z,1.80
2019-03-20T00:04:04.760Z,1.80
2019-03-20T00:05:04.402Z,1.80
2019-03-20T00:06:04.564Z,1.80
2019-03-20T00:07:04.734Z,1.70
2019-03-20T00:08:04.697Z,1.70
2019-03-20T00:09:04.354Z,1.70
2019-03-20T00:10:04.352Z,1.70
2019-03-20T00:11:04.367Z,1.70
2019-03-20T00:12:04.607Z,1.70
2019-03-20T00:13:04.783Z,1.60
2019-03-20T00:14:04.311Z,1.60
2019-03-20T00:15:04.298Z,1.60
2019-03-20T00:16:04.524Z,1.60
2019-03-20T00:17:09.259Z,1.60
2019-03-20T00:18:04.487Z,1.50
2019-03-20T00:19:04.709Z,1.50
2019-03-20T00:20:04.616Z,1.50
2019-03-20T00:21:04.765Z,1.50
2019-03-20T00:22:04.478Z,1.40
2019-03-20T00:23:04.499Z,1.40
2019-03-20T00:24:04.374Z,1.40
2019-03-20T00:25:04.409Z,1.40
2019-03-20T00:26:04.423Z,1.30
2019-03-20T00:27:04.540Z,1.30
2019-03-20T00:28:04.559Z,1.30
2019-03-20T00:29:05.133Z,1.30
2019-03-20T00:30:04.457Z,1.20
2019-03-20T00:31:04.644Z,1.20
2019-03-20T00:32:04.739Z,1.20
2019-03-20T00:33:04.216Z,1.10
2019-03-20T00:34:04.406Z,1.10
2019-03-20T00:35:04.747Z,1.10
2019-03-20T00:36:04.875Z,1.10
2019-03-20T00:37:04.373Z,1.10
2019-03-20T00:38:04.744Z,1.10
2019-03-20T00:39:05.011Z,1.10
2019-03-20T00:40:04.440Z,1.10
2019-03-20T00:41:04.647Z,1.00
2019-03-20T00:42:04.997Z,1.00
2019-03-20T00:43:04.617Z,1.00
2019-03-20T00:44:04.730Z,1.00
2019-03-20T00:45:04.670Z,1.00
2019-03-20T00:46:04.762Z,1.00
2019-03-20T00:47:05.109Z,1.00
2019-03-20T00:48:04.240Z,1.00
2019-03-20T00:49:04.759Z,0.90
2019-03-20T00:50:04.659Z,0.90
2019-03-20T00:51:10.053Z,0.90
2019-03-20T00:52:04.532Z,0.90
2019-03-20T00:53:04.550Z,0.90
2019-03-20T00:54:05.097Z,0.90
2019-03-20T00:55:05.159Z,0.90
2019-03-20T00:56:04.159Z,0.90
2019-03-20T00:57:04.258Z,0.90
2019-03-20T00:58:04.397Z,0.90
2019-03-20T00:59:04.429Z,0.80
2019-03-20T01:00:04.743Z,0.80
2019-03-20T01:01:04.373Z,0.80
2019-03-20T01:02:04.585Z,0.80
2019-03-20T01:03:04.424Z,0.80
2019-03-20T01:04:04.374Z,0.80
2019-03-20T01:05:12.379Z,0.80
2019-03-20T01:06:04.479Z,0.80
2019-03-20T01:07:05.038Z,0.80
2019-03-20T01:08:04.665Z,0.80
2019-03-20T01:09:04.257Z,0.80
2019-03-20T01:10:04.601Z,0.80
2019-03-20T01:11:04.752Z,0.80
2019-03-20T01:12:04.684Z,0.80
2019-03-20T01:13:04.855Z,0.80
2019-03-20T01:14:04.753Z,0.80
2019-03-20T01:15:05.053Z,0.80
2019-03-20T01:16:04.510Z,0.80
2019-03-20T01:17:04.819Z,0.80
2019-03-20T01:18:04.759Z,0.70
2019-03-20T01:19:04.939Z,0.70
2019-03-20T01:20:04.249Z,0.70
2019-03-20T01:21:04.909Z,0.70
2019-03-20T01:22:04.994Z,0.70
2019-03-20T01:23:04.294Z,0.70
2019-03-20T01:24:04.752Z,0.70
2019-03-20T01:25:04.485Z,0.60
2019-03-20T01:26:04.429Z,0.60
2019-03-20T01:27:04.840Z,0.60
2019-03-20T01:28:04.421Z,0.60
2019-03-20T01:29:04.419Z,0.60
2019-03-20T01:30:05.186Z,0.60
2019-03-20T01:31:05.087Z,0.50
2019-03-20T01:32:04.494Z,0.50
2019-03-20T01:33:04.633Z,0.50
2019-03-20T01:34:05.114Z,0.50
2019-03-20T01:35:05.088Z,0.50
2019-03-20T01:36:04.452Z,0.50
2019-03-20T01:37:04.538Z,0.40
2019-03-20T01:38:05.123Z,0.40
2019-03-20T01:39:05.140Z,0.40
2019-03-20T01:40:04.198Z,0.40
2019-03-20T01:41:04.987Z,0.40
2019-03-20T01:42:04.941Z,0.40
2019-03-20T01:43:09.599Z,0.30
2019-03-20T01:44:05.056Z,0.30
2019-03-20T01:45:04.210Z,0.30
2019-03-20T01:46:05.100Z,0.20
2019-03-20T01:47:06.776Z,0.20
2019-03-20T01:48:04.633Z,0.20
2019-03-20T01:49:04.625Z,0.20
2019-03-20T01:50:04.748Z,0.20
2019-03-20T01:51:04.983Z,0.10
2019-03-20T01:52:04.201Z,0.20
2019-03-20T01:53:04.371Z,0.10
2019-03-20T01:54:04.455Z,0.10
2019-03-20T01:55:04.600Z,0.10
2019-03-20T01:56:04.636Z,0.10
2019-03-20T01:57:04.625Z,0.10
2019-03-20T01:58:04.696Z,0.10
2019-03-20T01:59:04.457Z,0.00
2019-03-20T02:00:04.612Z,0.00
2019-03-20T02:01:04.842Z,0.00
2019-03-20T02:02:05.016Z,0.00
2019-03-20T02:03:05.122Z,0.00
2019-03-20T02:04:04.705Z,0.00
2019-03-20T02:05:04.640Z,0.00
2019-03-20T02:06:04.781Z,-0.10
2019-03-20T02:07:04.838Z,-0.10
2019-03-20T02:08:04.288Z,-0.10
2019-03-20T02:09:04.421Z,-0.10
2019-03-20T02:10:04.271Z,-0.10
2019-03-20T02:11:04.874Z,-0.10
2019-03-20T02:12:04.402Z,-0.10
2019-03-20T02:13:04.336Z,-0.10
2019-03-20T02:14:04.307Z,-0.10
2019-03-20T02:15:04.909Z,-0.10
2019-03-20T02:16:04.206Z,-0.10
2019-03-20T02:17:04.484Z,-0.10
2019-03-20T02:18:04.597Z,-0.10
2019-03-20T02:19:04.705Z,-0.10
2019-03-20T02:20:04.823Z,-0.10
2019-03-20T02:21:04.322Z,-0.20
2019-03-20T02:22:04.652Z,-0.20
2019-03-20T02:23:04.314Z,-0.20
2019-03-20T02:24:04.588Z,-0.20
2019-03-20T02:25:04.703Z,-0.20
2019-03-20T02:26:04.896Z,-0.20
2019-03-20T02:27:05.045Z,-0.20
2019-03-20T02:28:04.671Z,-0.20
2019-03-20T02:29:04.250Z,-0.20
2019-03-20T02:30:04.488Z,-0.20
2019-03-20T02:31:04.702Z,-0.20
2019-03-20T02:32:04.810Z,-0.20
2019-03-20T02:33:04.891Z,-0.20
2019-03-20T02:34:04.521Z,-0.20
2019-03-20T02:35:04.461Z,-0.20
2019-03-20T02:36:05.222Z,-0.30
2019-03-20T02:37:04.413Z,-0.20
2019-03-20T02:38:04.435Z,-0.30
2019-03-20T02:39:04.813Z,-0.30
2019-03-20T02:40:04.823Z,-0.30
2019-03-20T02:41:04.905Z,-0.30
2019-03-20T02:42:04.299Z,-0.30
2019-03-20T02:43:14.426Z,-0.30
2019-03-20T02:44:04.853Z,-0.30
2019-03-20T02:45:04.900Z,-0.30
2019-03-20T02:46:04.613Z,-0.30
2019-03-20T02:47:05.006Z,-0.30
2019-03-20T02:48:04.369Z,-0.30
2019-03-20T02:49:04.321Z,-0.30
2019-03-20T02:50:04.921Z,-0.30
2019-03-20T02:51:04.904Z,-0.30
2019-03-20T02:52:05.204Z,-0.40
2019-03-20T02:53:04.454Z,-0.40
2019-03-20T02:54:05.178Z,-0.40
2019-03-20T02:55:04.210Z,-0.40
2019-03-20T02:56:04.318Z,-0.40
2019-03-20T02:57:04.898Z,-0.40
2019-03-20T02:58:04.971Z,-0.50
2019-03-20T02:59:05.110Z,-0.50
2019-03-20T03:00:05.111Z,-0.50
2019-03-20T03:01:05.171Z,-0.50
2019-03-20T03:02:05.146Z,-0.60
2019-03-20T03:03:05.071Z,-0.60
2019-03-20T03:04:05.081Z,-0.60
2019-03-20T03:05:04.559Z,-0.60
2019-03-20T03:06:06.949Z,-0.60
2019-03-20T03:07:04.359Z,-0.60
2019-03-20T03:08:04.435Z,-0.70
2019-03-20T03:09:04.466Z,-0.70
2019-03-20T03:10:05.177Z,-0.70
2019-03-20T03:11:04.241Z,-0.70
2019-03-20T03:12:04.255Z,-0.70
2019-03-20T03:13:04.700Z,-0.70
2019-03-20T03:14:05.185Z,-0.70
2019-03-20T03:15:04.312Z,-0.70
2019-03-20T03:16:04.864Z,-0.70
2019-03-20T03:17:04.982Z,-0.70
2019-03-20T03:18:05.364Z,-0.80
2019-03-20T03:19:04.557Z,-0.80
2019-03-20T03:20:04.673Z,-0.80
2019-03-20T03:21:04.798Z,-0.80
2019-03-20T03:22:04.853Z,-0.80
2019-03-20T03:23:04.955Z,-0.80
2019-03-20T03:24:04.215Z,-0.80
2019-03-20T03:25:04.497Z,-0.80
2019-03-20T03:26:04.700Z,-0.80
2019-03-20T03:27:05.237Z,-0.80
2019-03-20T03:28:04.596Z,-0.80
2019-03-20T03:29:04.599Z,-0.80
2019-03-20T03:30:05.024Z,-0.90
2019-03-20T03:31:04.288Z,-0.90
2019-03-20T03:32:04.403Z,-0.90
2019-03-20T03:33:04.513Z,-0.90
2019-03-20T03:34:04.489Z,-0.90
2019-03-20T03:35:04.985Z,-0.90
2019-03-20T03:36:04.556Z,-0.90
2019-03-20T03:37:04.257Z,-0.90
2019-03-20T03:38:04.333Z,-0.90
2019-03-20T03:39:04.375Z,-0.90
2019-03-20T03:40:04.467Z,-0.90
2019-03-20T03:41:04.677Z,-0.90
2019-03-20T03:42:04.724Z,-0.90
2019-03-20T03:43:10.150Z,-0.90
2019-03-20T03:44:04.526Z,-0.90
2019-03-20T03:45:05.160Z,-0.90
2019-03-20T03:46:04.450Z,-0.90
2019-03-20T03:47:04.586Z,-0.90
2019-03-20T03:48:04.685Z,-0.90
2019-03-20T03:49:05.016Z,-0.90
2019-03-20T03:50:04.782Z,-0.90
2019-03-20T03:51:04.420Z,-0.90
2019-03-20T03:52:04.527Z,-0.90
2019-03-20T03:53:04.428Z,-0.90
2019-03-20T03:54:04.546Z,-0.90
2019-03-20T03:55:05.030Z,-0.90
2019-03-20T03:56:04.870Z,-0.90
2019-03-20T03:57:04.182Z,-0.90
2019-03-20T03:58:04.307Z,-0.90
2019-03-20T03:59:04.458Z,-1.00
2019-03-20T04:00:04.612Z,-1.00
2019-03-20T04:01:04.965Z,-1.00
2019-03-20T04:02:04.408Z,-1.00
2019-03-20T04:03:04.657Z,-1.10
2019-03-20T04:04:04.810Z,-1.10
2019-03-20T04:05:04.905Z,-1.10
2019-03-20T04:06:05.169Z,-1.10
2019-03-20T04:07:04.768Z,-1.10
2019-03-20T04:08:04.951Z,-1.10
2019-03-20T04:09:05.021Z,-1.10
2019-03-20T04:10:04.572Z,-1.10
2019-03-20T04:11:04.561Z,-1.20
2019-03-20T04:12:04.827Z,-1.20
2019-03-20T04:13:04.274Z,-1.20
2019-03-20T04:14:04.589Z,-1.20
2019-03-20T04:15:04.555Z,-1.20
2019-03-20T04:16:04.849Z,-1.20
2019-03-20T04:17:04.292Z,-1.20
2019-03-20T04:18:04.757Z,-1.20
2019-03-20T04:19:04.730Z,-1.20
2019-03-20T04:20:05.317Z,-1.20
2019-03-20T04:21:05.073Z,-1.20
2019-03-20T04:22:04.245Z,-1.20
2019-03-20T04:23:04.275Z,-1.20
2019-03-20T04:24:04.600Z,-1.20
2019-03-20T04:25:05.062Z,-1.20
2019-03-20T04:26:04.435Z,-1.20
2019-03-20T04:27:04.712Z,-1.20
2019-03-20T04:28:04.757Z,-1.30
2019-03-20T04:29:04.248Z,-1.30
2019-03-20T04:30:04.326Z,-1.30
2019-03-20T04:31:04.834Z,-1.30
2019-03-20T04:32:04.402Z,-1.30
2019-03-20T04:33:04.784Z,-1.30
2019-03-20T04:34:04.807Z,-1.30
2019-03-20T04:35:04.274Z,-1.30
2019-03-20T04:36:04.437Z,-1.30
2019-03-20T04:37:04.809Z,-1.30
2019-03-20T04:38:04.347Z,-1.40
2019-03-20T04:39:04.356Z,-1.40
2019-03-20T04:40:04.561Z,-1.40
2019-03-20T04:41:04.979Z,-1.40
2019-03-20T04:42:04.207Z,-1.40
2019-03-20T04:43:09.935Z,-1.40
2019-03-20T04:44:04.342Z,-1.40
2019-03-20T04:45:04.580Z,-1.50
2019-03-20T04:46:04.576Z,-1.50
2019-03-20T04:47:05.079Z,-1.50
2019-03-20T04:48:05.132Z,-1.50
2019-03-20T04:49:04.578Z,-1.50
2019-03-20T04:50:04.887Z,-1.50
2019-03-20T04:51:04.999Z,-1.50
2019-03-20T04:52:04.786Z,-1.50
2019-03-20T04:53:05.071Z,-1.50
2019-03-20T04:54:04.719Z,-1.50
2019-03-20T04:55:05.281Z,-1.50
2019-03-20T04:56:04.806Z,-1.50
2019-03-20T04:57:04.928Z,-1.50
2019-03-20T04:58:04.254Z,-1.50
2019-03-20T04:59:04.777Z,-1.50
2019-03-20T05:00:05.006Z,-1.50
2019-03-20T05:01:05.026Z,-1.50
2019-03-20T05:02:04.598Z,-1.50
2019-03-20T05:03:05.055Z,-1.50
2019-03-20T05:04:04.595Z,-1.50
2019-03-20T05:05:04.708Z,-1.50
2019-03-20T05:06:04.857Z,-1.50
2019-03-20T05:07:04.377Z,-1.50
2019-03-20T05:08:04.555Z,-1.50
2019-03-20T05:09:04.888Z,-1.50
2019-03-20T05:10:05.099Z,-1.50
2019-03-20T05:11:05.146Z,-1.50
2019-03-20T05:12:04.546Z,-1.50
2019-03-20T05:13:04.608Z,-1.50
2019-03-20T05:14:04.756Z,-1.60
2019-03-20T05:15:05.065Z,-1.60
2019-03-20T05:16:05.293Z,-1.60
2019-03-20T05:17:04.653Z,-1.60
2019-03-20T05:18:04.251Z,-1.60
2019-03-20T05:19:04.737Z,-1.60
2019-03-20T05:20:04.775Z,-1.70
2019-03-20T05:21:05.252Z,-1.70
2019-03-20T05:22:04.413Z,-1.70
2019-03-20T05:23:04.485Z,-1.70
2019-03-20T05:24:04.517Z,-1.70
2019-03-20T05:25:05.163Z,-1.70
2019-03-20T05:26:04.263Z,-1.70
2019-03-20T05:27:04.690Z,-1.70
2019-03-20T05:28:05.051Z,-1.70
2019-03-20T05:29:05.277Z,-1.70
2019-03-20T05:30:04.845Z,-1.70
2019-03-20T05:31:05.115Z,-1.70
2019-03-20T05:32:04.532Z,-1.70
2019-03-20T05:33:04.728Z,-1.70
2019-03-20T05:34:04.910Z,-1.70
2019-03-20T05:35:05.192Z,-1.60
2019-03-20T05:36:04.851Z,-1.70
2019-03-20T05:37:10.098Z,-1.60
2019-03-20T05:38:04.445Z,-1.60
2019-03-20T05:39:04.731Z,-1.60
2019-03-20T05:40:04.425Z,-1.60
2019-03-20T05:41:05.022Z,-1.60
2019-03-20T05:42:05.343Z,-1.60
2019-03-20T05:43:09.362Z,-1.60
2019-03-20T05:44:04.932Z,-1.60
2019-03-20T05:45:04.299Z,-1.60
2019-03-20T05:46:04.487Z,-1.60
2019-03-20T05:47:04.996Z,-1.60
2019-03-20T05:48:05.198Z,-1.60
2019-03-20T05:49:04.653Z,-1.60
2019-03-20T05:50:04.880Z,-1.60
2019-03-20T05:51:05.130Z,-1.50
2019-03-20T05:52:05.230Z,-1.50
2019-03-20T05:53:04.883Z,-1.50
2019-03-20T05:54:04.886Z,-1.40
2019-03-20T05:55:04.922Z,-1.30
2019-03-20T05:56:04.599Z,-1.20
2019-03-20T05:57:04.783Z,-1.10
2019-03-20T05:58:04.301Z,-1.00
2019-03-20T05:59:04.295Z,-0.90
2019-03-20T06:00:04.847Z,-0.70
2019-03-20T06:01:04.986Z,-0.60
2019-03-20T06:02:04.335Z,-0.40
2019-03-20T06:03:09.440Z,-0.30
2019-03-20T06:04:05.034Z,-0.10
2019-03-20T06:05:04.365Z,0.10
2019-03-20T06:06:04.800Z,0.30
2019-03-20T06:07:05.198Z,0.40
2019-03-20T06:08:04.553Z,0.60
2019-03-20T06:09:04.552Z,0.80
2019-03-20T06:10:04.685Z,0.90
2019-03-20T06:11:04.807Z,1.10
2019-03-20T06:12:04.809Z,1.30
2019-03-20T06:13:05.068Z,1.40
2019-03-20T06:14:05.183Z,1.60
2019-03-20T06:15:04.317Z,1.70
2019-03-20T06:16:04.503Z,1.90
2019-03-20T06:17:05.114Z,2.10
2019-03-20T06:18:05.208Z,2.20
2019-03-20T06:19:04.707Z,2.40
2019-03-20T06:20:05.249Z,2.50
2019-03-20T06:21:04.532Z,2.60
2019-03-20T06:22:04.666Z,2.80
2019-03-20T06:23:04.460Z,2.90
2019-03-20T06:24:05.066Z,3.00
2019-03-20T06:25:05.024Z,3.20
2019-03-20T06:26:04.247Z,3.30
2019-03-20T06:27:04.903Z,3.40
2019-03-20T06:28:04.338Z,3.50
2019-03-20T06:29:04.589Z,3.60
2019-03-20T06:30:04.776Z,3.70
2019-03-20T06:31:04.958Z,3.80
2019-03-20T06:32:05.204Z,4.00
2019-03-20T06:33:04.329Z,4.10
2019-03-20T06:34:04.398Z,4.20
2019-03-20T06:35:05.021Z,4.30
2019-03-20T06:36:05.142Z,4.40
2019-03-20T06:37:04.732Z,4.50
2019-03-20T06:38:04.491Z,4.60
2019-03-20T06:39:05.033Z,4.70
2019-03-20T06:40:04.668Z,4.80
2019-03-20T06:41:04.883Z,4.90
2019-03-20T06:42:05.085Z,5.00
2019-03-20T06:43:09.251Z,5.10
2019-03-20T06:44:04.691Z,5.10
2019-03-20T06:45:04.363Z,5.20
2019-03-20T06:46:04.491Z,5.30
2019-03-20T06:47:04.933Z,5.40
2019-03-20T06:48:05.017Z,5.50
2019-03-20T06:49:04.969Z,5.60
2019-03-20T06:50:04.643Z,5.60
2019-03-20T06:51:04.834Z,5.70
2019-03-20T06:52:04.353Z,5.80
2019-03-20T06:53:04.700Z,5.90
2019-03-20T06:54:04.363Z,5.90
2019-03-20T06:55:04.308Z,6.00
2019-03-20T06:56:04.618Z,6.10
2019-03-20T06:57:04.294Z,6.10
2019-03-20T06:58:04.576Z,6.20
2019-03-20T06:59:04.576Z,6.20
2019-03-20T07:00:05.449Z,6.30
2019-03-20T07:01:04.283Z,6.40
2019-03-20T07:02:04.429Z,6.40
2019-03-20T07:03:09.582Z,6.50
2019-03-20T07:04:04.995Z,6.50
2019-03-20T07:05:04.222Z,6.60
2019-03-20T07:06:04.323Z,6.70
2019-03-20T07:07:04.556Z,6.70
2019-03-20T07:08:04.604Z,6.70
2019-03-20T07:09:04.843Z,6.80
2019-03-20T07:10:04.989Z,6.80
2019-03-20T07:11:04.434Z,6.90
2019-03-20T07:12:04.989Z,6.90
2019-03-20T07:13:04.500Z,6.90
2019-03-20T07:14:05.171Z,6.90
2019-03-20T07:15:04.274Z,7.00
2019-03-20T07:16:04.875Z,7.00
2019-03-20T07:17:05.313Z,7.00
2019-03-20T07:18:04.353Z,7.10
2019-03-20T07:19:04.459Z,7.10
2019-03-20T07:20:04.970Z,7.10
2019-03-20T07:21:05.123Z,7.20
2019-03-20T07:22:05.142Z,7.20
2019-03-20T07:23:04.315Z,7.20
2019-03-20T07:24:04.471Z,7.20
2019-03-20T07:25:04.647Z,7.20
2019-03-20T07:26:04.737Z,7.20
2019-03-20T07:27:04.442Z,7.20
2019-03-20T07:28:05.069Z,7.20
2019-03-20T07:29:05.157Z,7.30
2019-03-20T07:30:04.555Z,7.20
2019-03-20T07:31:14.562Z,7.20
2019-03-20T07:32:04.263Z,7.20
2019-03-20T07:33:04.799Z,7.30
2019-03-20T07:34:04.455Z,7.30
2019-03-20T07:35:04.431Z,7.30
2019-03-20T07:36:04.364Z,7.30
2019-03-20T07:37:05.030Z,7.30
2019-03-20T07:38:05.208Z,7.30
2019-03-20T07:39:04.609Z,7.40
2019-03-20T07:40:04.828Z,7.40
2019-03-20T07:41:04.977Z,7.40
2019-03-20T07:42:05.110Z,7.40
2019-03-20T07:43:08.920Z,7.40
2019-03-20T07:44:05.103Z,7.40
2019-03-20T07:45:04.589Z,7.40
2019-03-20T07:46:04.798Z,7.50
2019-03-20T07:47:04.235Z,7.50
2019-03-20T07:48:04.792Z,7.50
2019-03-20T07:49:04.954Z,7.50
2019-03-20T07:50:04.579Z,7.50
2019-03-20T07:51:04.175Z,7.50
2019-03-20T07:52:04.399Z,7.60
2019-03-20T07:53:04.992Z,7.60
2019-03-20T07:54:05.015Z,7.60
2019-03-20T07:55:04.380Z,7.60
2019-03-20T07:56:04.983Z,7.60
2019-03-20T07:57:04.635Z,7.70
2019-03-20T07:58:09.597Z,7.70
2019-03-20T07:59:05.021Z,7.70
2019-03-20T08:00:04.679Z,7.70
2019-03-20T08:01:04.842Z,7.70
2019-03-20T08:02:05.014Z,7.80
2019-03-20T08:03:05.035Z,7.80
2019-03-20T08:04:05.089Z,7.80
2019-03-20T08:05:05.322Z,7.80
2019-03-20T08:06:04.574Z,7.80
2019-03-20T08:07:05.035Z,7.80
2019-03-20T08:08:07.423Z,7.80
2019-03-20T08:09:04.678Z,7.80
2019-03-20T08:10:04.918Z,7.80
2019-03-20T08:11:04.983Z,7.80
2019-03-20T08:12:05.184Z,7.80
2019-03-20T08:13:05.173Z,7.80
2019-03-20T08:14:04.816Z,7.80
2019-03-20T08:15:05.246Z,7.80
2019-03-20T08:16:04.678Z,7.80
2019-03-20T08:17:04.745Z,7.80
2019-03-20T08:18:04.803Z,7.80
2019-03-20T08:19:05.057Z,7.90
2019-03-20T08:20:05.198Z,7.90
2019-03-20T08:21:04.309Z,7.90
2019-03-20T08:22:04.645Z,8.00
2019-03-20T08:23:04.710Z,8.00
2019-03-20T08:24:04.899Z,8.00
2019-03-20T08:25:05.057Z,8.00
2019-03-20T08:26:04.513Z,8.00
2019-03-20T08:27:04.958Z,8.00
2019-03-20T08:28:05.041Z,8.00
2019-03-20T08:29:05.177Z,8.00
2019-03-20T08:30:04.241Z,8.00
2019-03-20T08:31:04.399Z,8.10
2019-03-20T08:32:05.135Z,8.10
2019-03-20T08:33:04.610Z,8.10
2019-03-20T08:34:04.680Z,8.20
2019-03-20T08:35:04.282Z,8.20
2019-03-20T08:36:04.346Z,8.20
2019-03-20T08:37:04.374Z,8.20
2019-03-20T08:38:04.447Z,8.20
2019-03-20T08:39:04.712Z,8.30
2019-03-20T08:40:04.951Z,8.30
2019-03-20T08:41:04.990Z,8.30
2019-03-20T08:42:04.726Z,8.30
2019-03-20T08:43:10.070Z,8.30
2019-03-20T08:44:04.661Z,8.30
2019-03-20T08:45:04.641Z,8.30
2019-03-20T08:46:04.384Z,8.40
2019-03-20T08:47:04.363Z,8.40
2019-03-20T08:48:04.464Z,8.40
2019-03-20T08:49:04.685Z,8.50
2019-03-20T08:50:04.643Z,8.50
2019-03-20T08:51:05.175Z,8.50
2019-03-20T08:52:04.483Z,8.60
2019-03-20T08:53:04.621Z,8.60
2019-03-20T08:54:05.201Z,8.60
2019-03-20T08:55:04.443Z,8.70
2019-03-20T08:56:04.626Z,8.70
2019-03-20T08:57:04.406Z,8.70
2019-03-20T08:58:04.729Z,8.70
2019-03-20T08:59:04.234Z,8.70
2019-03-20T09:00:04.523Z,8.80
2019-03-20T09:01:05.134Z,8.80
2019-03-20T09:02:04.456Z,8.80
2019-03-20T09:03:05.019Z,8.80
2019-03-20T09:04:05.304Z,8.80
2019-03-20T09:05:04.387Z,8.80
2019-03-20T09:06:09.537Z,8.90
2019-03-20T09:07:05.092Z,8.90
2019-03-20T09:08:04.635Z,8.90
2019-03-20T09:09:05.197Z,8.90
2019-03-20T09:10:04.382Z,9.00
2019-03-20T09:11:04.714Z,9.00
2019-03-20T09:12:04.865Z,9.00
2019-03-20T09:13:04.544Z,9.10
2019-03-20T09:14:04.603Z,9.10
2019-03-20T09:15:04.647Z,9.10
2019-03-20T09:16:05.142Z,9.20
2019-03-20T09:17:04.483Z,9.20
2019-03-20T09:18:04.750Z,9.20
2019-03-20T09:19:04.947Z,9.30
2019-03-20T09:20:05.158Z,9.30
2019-03-20T09:21:04.808Z,9.30
2019-03-20T09:22:04.895Z,9.40
2019-03-20T09:23:04.276Z,9.40
2019-03-20T09:24:04.929Z,9.40
2019-03-20T09:25:05.099Z,9.40
2019-03-20T09:26:04.769Z,9.40
2019-03-20T09:27:04.259Z,9.50
2019-03-20T09:28:04.444Z,9.50
2019-03-20T09:29:04.732Z,9.50
2019-03-20T09:30:04.856Z,9.50
2019-03-20T09:31:05.374Z,9.50
2019-03-20T09:32:04.887Z,9.60
2019-03-20T09:33:04.303Z,9.60
2019-03-20T09:34:04.855Z,9.60
2019-03-20T09:35:06.887Z,9.60
2019-03-20T09:36:04.846Z,9.70
2019-03-20T09:37:05.128Z,9.70
2019-03-20T09:38:04.203Z,9.70
2019-03-20T09:39:04.574Z,9.70
2019-03-20T09:40:04.928Z,9.80
2019-03-20T09:41:04.528Z,9.80
2019-03-20T09:42:04.909Z,9.80
2019-03-20T09:43:09.575Z,9.80
2019-03-20T09:44:05.101Z,9.80
2019-03-20T09:45:04.265Z,9.80
2019-03-20T09:46:04.336Z,9.90
2019-03-20T09:47:04.621Z,9.90
2019-03-20T09:48:04.216Z,9.90
2019-03-20T09:49:04.572Z,9.90
2019-03-20T09:50:04.615Z,9.90
2019-03-20T09:51:04.783Z,10.00
2019-03-20T09:52:04.321Z,10.00
2019-03-20T09:53:04.561Z,10.00
2019-03-20T09:54:04.637Z,10.10
2019-03-20T09:55:04.724Z,10.10
2019-03-20T09:56:04.799Z,10.10
2019-03-20T09:57:04.966Z,10.10
2019-03-20T09:58:11.345Z,10.10
2019-03-20T09:59:04.485Z,10.10
2019-03-20T10:00:04.829Z,10.20
2019-03-20T10:01:05.018Z,10.20
2019-03-20T10:02:05.085Z,10.20
2019-03-20T10:03:10.224Z,10.20
2019-03-20T10:04:04.765Z,10.20
2019-03-20T10:05:04.871Z,10.20
2019-03-20T10:06:04.894Z,10.30
2019-03-20T10:07:04.553Z,10.30
2019-03-20T10:08:05.154Z,10.30
2019-03-20T10:09:04.504Z,10.30
2019-03-20T10:10:04.585Z,10.40
2019-03-20T10:11:04.520Z,10.40
2019-03-20T10:12:05.116Z,10.40
2019-03-20T10:13:04.502Z,10.50
2019-03-20T10:14:04.755Z,10.50
2019-03-20T10:15:04.843Z,10.50
2019-03-20T10:16:04.551Z,10.50
2019-03-20T10:17:05.204Z,10.60
2019-03-20T10:18:04.795Z,10.60
2019-03-20T10:19:04.962Z,10.60
2019-03-20T10:20:04.405Z,10.60
2019-03-20T10:21:04.493Z,10.60
2019-03-20T10:22:04.744Z,10.60
2019-03-20T10:23:04.867Z,10.60
2019-03-20T10:24:04.900Z,10.70
2019-03-20T10:25:05.082Z,10.70
2019-03-20T10:26:04.352Z,10.70
2019-03-20T10:27:04.399Z,10.70
2019-03-20T10:28:04.644Z,10.70
2019-03-20T10:29:04.658Z,10.80
2019-03-20T10:30:04.686Z,10.80
2019-03-20T10:31:04.573Z,10.80
2019-03-20T10:32:04.578Z,10.80
2019-03-20T10:33:04.811Z,10.80
2019-03-20T10:34:04.576Z,10.90
2019-03-20T10:35:04.508Z,10.90
2019-03-20T10:36:05.003Z,10.90
2019-03-20T10:37:05.214Z,10.90
2019-03-20T10:38:04.709Z,10.90
2019-03-20T10:39:06.629Z,10.90
2019-03-20T10:40:04.598Z,11.00
2019-03-20T10:41:04.810Z,11.00
2019-03-20T10:42:04.363Z,11.00
2019-03-20T10:43:09.427Z,11.00
2019-03-20T10:44:04.856Z,10.90
2019-03-20T10:45:04.331Z,10.90
2019-03-20T10:46:04.688Z,10.90
2019-03-20T10:47:04.826Z,10.90
2019-03-20T10:48:04.850Z,11.00
2019-03-20T10:49:04.519Z,11.00
2019-03-20T10:50:04.612Z,11.00
2019-03-20T10:51:04.797Z,11.00
2019-03-20T10:52:04.343Z,11.00
2019-03-20T10:53:05.131Z,11.00
2019-03-20T10:54:04.168Z,11.00
2019-03-20T10:55:04.551Z,11.00
2019-03-20T10:56:04.763Z,11.00
2019-03-20T10:57:04.920Z,11.10
2019-03-20T10:58:05.235Z,11.10
2019-03-20T10:59:04.277Z,11.10
2019-03-20T11:00:04.923Z,11.10
2019-03-20T11:01:04.219Z,11.10
2019-03-20T11:02:04.517Z,11.10
2019-03-20T11:03:09.855Z,11.20
2019-03-20T11:04:04.305Z,11.20
2019-03-20T11:05:05.102Z,11.10
2019-03-20T11:06:05.144Z,11.20
2019-03-20T11:07:04.451Z,11.20
2019-03-20T11:08:04.675Z,11.20
2019-03-20T11:09:04.737Z,11.30
2019-03-20T11:10:05.028Z,11.30
2019-03-20T11:11:05.362Z,11.30
2019-03-20T11:12:04.282Z,11.30
2019-03-20T11:13:04.657Z,11.30
2019-03-20T11:14:04.258Z,11.30
2019-03-20T11:15:04.584Z,11.30
2019-03-20T11:16:04.680Z,11.40
2019-03-20T11:17:05.255Z,11.40
2019-03-20T11:18:04.368Z,11.40
2019-03-20T11:19:04.481Z,11.40
2019-03-20T11:20:04.674Z,11.40
2019-03-20T11:21:04.282Z,11.40
2019-03-20T11:22:04.831Z,11.50
2019-03-20T11:23:04.909Z,11.50
2019-03-20T11:24:05.222Z,11.50
2019-03-20T11:25:05.227Z,11.50
2019-03-20T11:26:04.454Z,11.50
2019-03-20T11:27:04.471Z,11.50
2019-03-20T11:28:05.028Z,11.50
2019-03-20T11:29:04.443Z,11.50
2019-03-20T11:30:04.525Z,11.50
2019-03-20T11:31:04.638Z,11.50
2019-03-20T11:32:04.272Z,11.60
2019-03-20T11:33:04.750Z,11.60
2019-03-20T11:34:05.141Z,11.60
2019-03-20T11:35:04.644Z,11.60
2019-03-20T11:36:05.112Z,11.60
2019-03-20T11:37:05.246Z,11.70
2019-03-20T11:38:04.900Z,11.70
2019-03-20T11:39:05.057Z,11.70
2019-03-20T11:40:04.654Z,11.70
2019-03-20T11:41:04.288Z,11.70
2019-03-20T11:42:04.799Z,11.70
2019-03-20T11:43:05.016Z,11.70
2019-03-20T11:44:05.226Z,11.70
2019-03-20T11:45:04.343Z,11.80
2019-03-20T11:46:04.601Z,11.80
2019-03-20T11:47:04.190Z,11.80
2019-03-20T11:48:04.490Z,11.80
2019-03-20T11:49:04.880Z,11.80
2019-03-20T11:50:04.926Z,11.80
2019-03-20T11:51:05.307Z,11.90
2019-03-20T11:52:06.244Z,11.90
2019-03-20T11:53:05.115Z,11.90
2019-03-20T11:54:04.453Z,11.90
2019-03-20T11:55:04.842Z,11.90
2019-03-20T11:56:05.208Z,11.90
2019-03-20T11:57:09.394Z,12.00
2019-03-20T11:58:04.942Z,12.00
2019-03-20T11:59:04.313Z,12.00
2019-03-20T12:00:04.810Z,12.00
2019-03-20T12:01:04.191Z,12.00
2019-03-20T12:02:04.909Z,12.00
2019-03-20T12:03:05.109Z,12.00
2019-03-20T12:04:05.160Z,12.00
2019-03-20T12:05:04.531Z,12.00
2019-03-20T12:06:04.340Z,12.00
2019-03-20T12:07:04.369Z,12.00
2019-03-20T12:08:04.472Z,12.00
2019-03-20T12:09:04.958Z,12.00
2019-03-20T12:10:04.364Z,12.00
2019-03-20T12:11:04.827Z,12.00
2019-03-20T12:12:05.139Z,12.00
2019-03-20T12:13:05.068Z,12.10
2019-03-20T12:14:04.279Z,12.10
2019-03-20T12:15:04.847Z,12.10
2019-03-20T12:16:04.313Z,12.10
2019-03-20T12:17:04.354Z,12.00
2019-03-20T12:18:05.010Z,12.00
2019-03-20T12:19:05.280Z,12.00
2019-03-20T12:20:04.203Z,12.00
2019-03-20T12:21:04.744Z,12.00
2019-03-20T12:22:04.863Z,12.00
2019-03-20T12:23:04.370Z,12.00
2019-03-20T12:24:04.498Z,12.00
2019-03-20T12:25:05.175Z,12.00
2019-03-20T12:26:04.243Z,12.00
2019-03-20T12:27:14.501Z,12.00
2019-03-20T12:28:05.028Z,12.00
2019-03-20T12:29:04.511Z,12.00
2019-03-20T12:30:04.665Z,12.00
2019-03-20T12:31:06.607Z,12.00
2019-03-20T12:32:04.606Z,12.10
2019-03-20T12:33:05.057Z,12.00
2019-03-20T12:34:05.248Z,12.00
2019-03-20T12:35:04.562Z,12.00
2019-03-20T12:36:04.931Z,12.00
2019-03-20T12:37:05.017Z,11.90
2019-03-20T12:38:13.586Z,12.00
2019-03-20T12:39:05.130Z,11.90
2019-03-20T12:40:05.244Z,11.90
2019-03-20T12:41:04.385Z,11.90
2019-03-20T12:42:04.404Z,11.90
2019-03-20T12:43:05.230Z,11.90
2019-03-20T12:44:04.321Z,11.90
2019-03-20T12:45:04.442Z,11.90
2019-03-20T12:46:04.712Z,11.90
2019-03-20T12:47:04.978Z,11.90
2019-03-20T12:48:10.174Z,11.90
2019-03-20T12:49:04.621Z,12.00
2019-03-20T12:50:04.349Z,12.00
2019-03-20T12:51:04.567Z,12.00
2019-03-20T12:52:04.593Z,12.10
2019-03-20T12:53:04.736Z,12.10
2019-03-20T12:54:04.738Z,12.10
2019-03-20T12:55:04.890Z,12.10
2019-03-20T12:56:05.067Z,12.10
2019-03-20T12:57:04.597Z,12.10
2019-03-20T12:58:04.745Z,12.10
2019-03-20T12:59:04.982Z,12.10
2019-03-20T13:00:04.633Z,12.20
2019-03-20T13:01:04.881Z,12.20
2019-03-20T13:02:05.036Z,12.20
2019-03-20T13:03:04.932Z,12.20
2019-03-20T13:04:05.024Z,12.20